首页
METAR-TAF:

METAR-TAF

机场 :

倫敦盧頓機場

卢顿, 英格兰

纬度: 51-52N, 经度: 000-22W, 海拔: 160米

当前天气观测

该预报发布于37分钟前的14:50 UTC
风速9节,风向南转西南,在西转西南之间变化
温度 20°C
湿度 53%
气压 1016 hPa
能见度10公里或以上
少量云层高于4100英尺

METAR: EGGW 171450Z AUTO 21009KT 170V240 9999 FEW041 20/10 Q1016

时间: 16:27 (15:27 UTC)

预报

该预报发布于4小时和28分钟前的10:59 UTC
预报有效从17日的 12点(UTC)到 18日的 12点(UTC)
风速12节,风向南转西南
能见度10公里或以上
散云层高于3000英尺
成为
从 18日的 01点(UTC)到 18日的 04点(UTC)
能見度: 7000
几率 30% :
短暂存在
从 18日的 02点(UTC)到 18日的 06点(UTC)
能見度: 3000
多云层高于300英尺
轻雾
成为
从 18日的 04点(UTC)到 18日的 07点(UTC)
能见度10公里或以上
几率 40% :
短暂存在
从 18日的 11点(UTC)到 18日的 12点(UTC)
能見度: 7000
雨, 阵雨

TAF: EGGW 171059Z 1712/1812 21012KT 9999 SCT030 BECMG 1801/1804 7000 PROB30 TEMPO 1802/1806 3000 BR BKN003 BECMG 1804/1807 9999 PROB40 TEMPO 1811/1812 7000 RA SHRA

超过4000个机场的气象观测和天气预报(METAR&TAF报告)。

可查询的气象台以黄色和红色小点在地图上表示。

将鼠标移到小点上方,可查看气象台名称。

然后点击查看天气观测和预报。

如需切换地图:点击带黑十字的绿色按钮放大地图;点击带横线的绿色按钮缩小地图;或者点击绿色箭头查看邻近地区的地图。


METAR-TAF: